Atlantic Tramp — V7SM5 — position and weather

sailwx.info

Track history (hours):
 
Tides and Currents Weather Stations Pressure Air Temp Water Temp Dewpoint Dewpoint Depression Visibility Wind Speed Wind Dir Waves Ship Positions

Atlantic Tramp

Last reported at 2015-Jul-02 01:28 UTC. Time now 2015-Jul-04 03:24 UTC.
Position N 53°55' E 014°17'.

Length 180 m; draft 10.1 m.

Type: Cargo ship. MMSI: 538003682.

Date/timePositionNaut miles runAvg speedWind from/ knotsBaromVisibWave heightAir tempDewpointWater temp
2015-Jul-02 01:28N 53°55' E 014°17'0 0.0
2015-Jul-01 21:16N 53°55' E 014°17'0 0.0
2015-Jul-01 20:28N 53°55' E 014°17'66 4.7
2015-Jul-01 06:29N 54°50' E 013°16'1011.1
2015-Jul-01 05:34N 54°47' E 012°59'1110.8
2015-Jul-01 04:33N 54°44' E 012°41'1110.7
2015-Jul-01 03:32N 54°38' E 012°25'1010.0
2015-Jul-01 02:33N 54°30' E 012°15'9 9.4
2015-Jul-01 01:33N 54°25' E 012°02'1010.6
2015-Jul-01 00:33N 54°25' E 011°44'1110.7
2015-Jun-30 23:33N 54°30' E 011°28'1010.5
2015-Jun-30 22:33N 54°34' E 011°11'17 8.7
2015-Jun-30 20:33N 54°44' E 010°47'12 9.3
2015-Jun-30 19:18N 54°56' E 010°53'100 9.3
2015-Jun-30 08:33N 56°32' E 011°38'1110.6
2015-Jun-30 07:32N 56°41' E 011°48'1110.1
2015-Jun-30 06:28N 56°52' E 011°48'1111.6
2015-Jun-30 05:33N 57°02' E 011°41'1211.8
2015-Jun-30 04:33N 57°13' E 011°34'1211.5
2015-Jun-30 03:33N 57°24' E 011°27'1110.9
2015-Jun-30 02:33N 57°33' E 011°15'1110.8
2015-Jun-30 01:33N 57°42' E 011°04'1511.5
2015-Jun-30 00:13N 57°52' E 010°42'6 3.2
2015-Jun-29 22:26N 57°51' E 010°31'1112.0
2015-Jun-29 21:32N 57°50' E 010°12'43910.9
2015-Jun-28 05:14N 59°30' W 003°30'810.7
2015-Jun-28 04:31N 59°30' W 003°45'1010.7
2015-Jun-28 03:33N 59°29' W 004°05'2210.8
2015-Jun-28 01:30N 59°23' W 004°47'  
Track history (hours):
 
Tides and Currents Weather Stations Pressure Air Temp Water Temp Dewpoint Dewpoint Depression Visibility Wind Speed Wind Dir Waves Ship Positions

Atlantic Tramp

Last reported at 2015-Jul-02 01:28 UTC. Time now 2015-Jul-04 03:24 UTC.
Position N 53°55' E 014°17'.

Length 180 m; draft 10.1 m.

Type: Cargo ship. MMSI: 538003682.

Date/timePositionNaut miles runAvg speedWind from/ knotsBaromVisibWave heightAir tempDewpointWater temp
2015-Jul-02 01:28N 53°55' E 014°17'0 0.0
2015-Jul-01 21:16N 53°55' E 014°17'0 0.0
2015-Jul-01 20:28N 53°55' E 014°17'66 4.7
2015-Jul-01 06:29N 54°50' E 013°16'1011.1
2015-Jul-01 05:34N 54°47' E 012°59'1110.8
2015-Jul-01 04:33N 54°44' E 012°41'1110.7
2015-Jul-01 03:32N 54°38' E 012°25'1010.0
2015-Jul-01 02:33N 54°30' E 012°15'9 9.4
2015-Jul-01 01:33N 54°25' E 012°02'1010.6
2015-Jul-01 00:33N 54°25' E 011°44'1110.7
2015-Jun-30 23:33N 54°30' E 011°28'1010.5
2015-Jun-30 22:33N 54°34' E 011°11'17 8.7
2015-Jun-30 20:33N 54°44' E 010°47'12 9.3
2015-Jun-30 19:18N 54°56' E 010°53'100 9.3
2015-Jun-30 08:33N 56°32' E 011°38'1110.6
2015-Jun-30 07:32N 56°41' E 011°48'1110.1
2015-Jun-30 06:28N 56°52' E 011°48'1111.6
2015-Jun-30 05:33N 57°02' E 011°41'1211.8
2015-Jun-30 04:33N 57°13' E 011°34'1211.5
2015-Jun-30 03:33N 57°24' E 011°27'1110.9
2015-Jun-30 02:33N 57°33' E 011°15'1110.8
2015-Jun-30 01:33N 57°42' E 011°04'1511.5
2015-Jun-30 00:13N 57°52' E 010°42'6 3.2
2015-Jun-29 22:26N 57°51' E 010°31'1112.0
2015-Jun-29 21:32N 57°50' E 010°12'43910.9
2015-Jun-28 05:14N 59°30' W 003°30'810.7
2015-Jun-28 04:31N 59°30' W 003°45'1010.7
2015-Jun-28 03:33N 59°29' W 004°05'2210.8
2015-Jun-28 01:30N 59°23' W 004°47'  

Dump ship's entire track history